Renville, MN (56284)

2:33 PM CST on November 28, 2014 (GMT -0600)
SW of Prinsburg | Change Station
CLOSE
Current Station
Personal Weather Station
Location: Prinsburg, MN
Elevation: 1071 ft
Nearby Weather Stations

Elev 1071 ft 44.91 °N, 95.23 °W | Updated 3 minutes ago

Partly Cloudy
Partly Cloudy
18.8 °F
Feels Like 6 °F
N
13.0
Wind Variable Wind from ESE
Gusts 15.7 mph

Today
High -- | Low -- °F
--% Chance of Precip.
Yesterday
High -- | Low -- °F
Precip. -- in
7:34 AM 4:42 PM
Waxing Crescent, 43% visible
Pressure 29.77 in
Visibility 10.0 miles
Clouds Scattered Clouds 1000 ft
Windchill 6 °F
Dew Point 16 °F
Humidity 87%
Rainfall 0.00 in
Snow Depth Not available.
UV 1 out of 12
Pollen .10 out of 12
Air Quality Not available.
Flu Activity Not available.
METAR KOVL 282014Z AUTO 11008KT 10SM SCT010 M06/M09 A2977 RMK AO2

More Conditions Fewer Conditions

Pressure 29.77 in
Visibility 10.0 miles
Clouds Scattered Clouds 1000 ft
Windchill 6 °F
Dew Point 16 °F
Humidity 87%
Rainfall 0.00 in
Snow Depth Not available.
UV 1 out of 12
Pollen .10 out of 12
Air Quality Not available.
Flu Activity Not available.
METAR KOVL 282014Z AUTO 11008KT 10SM SCT010 M06/M09 A2977 RMK AO2

More Conditions Fewer Conditions

10-Day Weather Forecast

Almanac

Astronomy

Nov. 28, 2014 Rise Set
Actual Time
Civil Twilight
Nautical Twilight
Astronomical Twilight
Moon
Length of Visible Light
Length of Day
Tomorrow will be .
, % of the Moon is Illuminated

Today's Extremes

State Highs State Lows

Community

WunderPhotos

Upload Photos

1,774,274 photos uploaded!

WunderBlogs® & News

Nearby

Air Quality

  Air Quality AQ Index Pollutant
Not available.

Snow Depth

Station Depth Elevation

Earthquake Activity

City Distance Mag. Time & Date
Minimum magnitude displayed is 2.5.

Coastal Water Temperatures

Place Temperature

Nearby Weather Stations